sensor_id;sensor_type;location;lat;lon;timestamp;temperature;humidity
6662;DHT22;3367;48.714;8.994;2022-10-16T00:01:52;14.30;99.90
6662;DHT22;3367;48.714;8.994;2022-10-16T00:04:19;14.20;99.90
6662;DHT22;3367;48.714;8.994;2022-10-16T00:06:46;14.40;99.90
6662;DHT22;3367;48.714;8.994;2022-10-16T00:09:13;14.30;99.90
6662;DHT22;3367;48.714;8.994;2022-10-16T00:11:41;14.20;1.00
6662;DHT22;3367;48.714;8.994;2022-10-16T00:14:10;14.10;1.00
6662;DHT22;3367;48.714;8.994;2022-10-16T00:16:37;14.00;1.00
6662;DHT22;3367;48.714;8.994;2022-10-16T00:19:04;14.00;1.00
6662;DHT22;3367;48.714;8.994;2022-10-16T00:21:32;13.90;1.00
6662;DHT22;3367;48.714;8.994;2022-10-16T00:24:02;13.90;1.00
6662;DHT22;3367;48.714;8.994;2022-10-16T00:26:31;13.90;1.00
6662;DHT22;3367;48.714;8.994;2022-10-16T00:29:00;13.80;1.00
6662;DHT22;3367;48.714;8.994;2022-10-16T00:31:28;13.80;1.00
6662;DHT22;3367;48.714;8.994;2022-10-16T00:33:55;13.70;1.00
6662;DHT22;3367;48.714;8.994;2022-10-16T00:36:24;13.80;1.00
6662;DHT22;3367;48.714;8.994;2022-10-16T00:38:53;13.60;1.00
6662;DHT22;3367;48.714;8.994;2022-10-16T00:41:21;13.60;99.10
6662;DHT22;3367;48.714;8.994;2022-10-16T00:43:50;13.60;99.90
6662;DHT22;3367;48.714;8.994;2022-10-16T00:46:21;13.60;99.90
6662;DHT22;3367;48.714;8.994;2022-10-16T00:48:52;13.50;99.90
6662;DHT22;3367;48.714;8.994;2022-10-16T00:51:23;13.50;99.90
6662;DHT22;3367;48.714;8.994;2022-10-16T00:53:52;13.50;99.90
6662;DHT22;3367;48.714;8.994;2022-10-16T00:56:19;13.50;99.90
6662;DHT22;3367;48.714;8.994;2022-10-16T00:58:46;13.50;99.90
6662;DHT22;3367;48.714;8.994;2022-10-16T01:01:13;13.50;99.90
6662;DHT22;3367;48.714;8.994;2022-10-16T01:03:42;13.60;99.90
6662;DHT22;3367;48.714;8.994;2022-10-16T01:06:24;13.50;99.90
6662;DHT22;3367;48.714;8.994;2022-10-16T01:09:02;13.50;99.90
6662;DHT22;3367;48.714;8.994;2022-10-16T01:11:38;13.50;99.90
6662;DHT22;3367;48.714;8.994;2022-10-16T01:14:13;13.50;1.00
6662;DHT22;3367;48.714;8.994;2022-10-16T01:16:46;13.60;1.00
6662;DHT22;3367;48.714;8.994;2022-10-16T01:19:23;13.50;1.00
6662;DHT22;3367;48.714;8.994;2022-10-16T01:42:31;13.40;1.00
6662;DHT22;3367;48.714;8.994;2022-10-16T01:45:01;13.50;1.00
6662;DHT22;3367;48.714;8.994;2022-10-16T01:47:30;13.50;1.00
6662;DHT22;3367;48.714;8.994;2022-10-16T01:49:58;13.60;1.00
6662;DHT22;3367;48.714;8.994;2022-10-16T01:52:28;13.60;1.00
6662;DHT22;3367;48.714;8.994;2022-10-16T01:54:56;13.60;1.00
6662;DHT22;3367;48.714;8.994;2022-10-16T01:57:26;13.60;1.00
6662;DHT22;3367;48.714;8.994;2022-10-16T01:59:57;13.80;1.00
6662;DHT22;3367;48.714;8.994;2022-10-16T02:02:27;13.70;1.00
6662;DHT22;3367;48.714;8.994;2022-10-16T02:04:59;13.70;1.00
6662;DHT22;3367;48.714;8.994;2022-10-16T02:07:29;13.70;99.90
6662;DHT22;3367;48.714;8.994;2022-10-16T02:09:56;13.70;99.90
6662;DHT22;3367;48.714;8.994;2022-10-16T02:12:27;13.70;99.90
6662;DHT22;3367;48.714;8.994;2022-10-16T02:14:55;13.70;99.90
6662;DHT22;3367;48.714;8.994;2022-10-16T02:17:22;13.70;99.90
6662;DHT22;3367;48.714;8.994;2022-10-16T02:19:52;13.70;99.90
6662;DHT22;3367;48.714;8.994;2022-10-16T02:22:24;13.70;99.90
6662;DHT22;3367;48.714;8.994;2022-10-16T02:24:57;14.00;99.90
6662;DHT22;3367;48.714;8.994;2022-10-16T02:27:29;13.70;99.90
6662;DHT22;3367;48.714;8.994;2022-10-16T02:30:06;13.70;99.90
6662;DHT22;3367;48.714;8.994;2022-10-16T02:32:37;13.80;99.90
6662;DHT22;3367;48.714;8.994;2022-10-16T02:35:05;14.00;99.90
6662;DHT22;3367;48.714;8.994;2022-10-16T02:37:33;13.70;99.90
6662;DHT22;3367;48.714;8.994;2022-10-16T02:40:00;13.70;99.90
6662;DHT22;3367;48.714;8.994;2022-10-16T02:42:33;13.70;99.90
6662;DHT22;3367;48.714;8.994;2022-10-16T02:45:00;13.90;99.90
6662;DHT22;3367;48.714;8.994;2022-10-16T02:47:27;13.80;99.90
6662;DHT22;3367;48.714;8.994;2022-10-16T02:49:54;13.70;99.90
6662;DHT22;3367;48.714;8.994;2022-10-16T02:52:21;13.80;99.90
6662;DHT22;3367;48.714;8.994;2022-10-16T02:54:48;13.70;99.90
6662;DHT22;3367;48.714;8.994;2022-10-16T02:57:15;13.70;99.90
6662;DHT22;3367;48.714;8.994;2022-10-16T02:59:44;13.80;99.90
6662;DHT22;3367;48.714;8.994;2022-10-16T03:02:11;13.60;99.90
6662;DHT22;3367;48.714;8.994;2022-10-16T03:04:38;13.70;99.90
6662;DHT22;3367;48.714;8.994;2022-10-16T03:07:05;13.60;99.90
6662;DHT22;3367;48.714;8.994;2022-10-16T03:09:33;13.70;99.90
6662;DHT22;3367;48.714;8.994;2022-10-16T03:12:00;13.70;99.90
6662;DHT22;3367;48.714;8.994;2022-10-16T03:14:27;13.70;99.90
6662;DHT22;3367;48.714;8.994;2022-10-16T03:16:55;13.60;99.90
6662;DHT22;3367;48.714;8.994;2022-10-16T03:19:22;13.60;99.90
6662;DHT22;3367;48.714;8.994;2022-10-16T03:21:49;13.60;99.90
6662;DHT22;3367;48.714;8.994;2022-10-16T03:24:16;13.70;99.90
6662;DHT22;3367;48.714;8.994;2022-10-16T03:26:42;13.60;99.90
6662;DHT22;3367;48.714;8.994;2022-10-16T03:29:09;13.70;99.90
6662;DHT22;3367;48.714;8.994;2022-10-16T03:31:36;13.60;99.90
6662;DHT22;3367;48.714;8.994;2022-10-16T03:34:05;13.60;99.90
6662;DHT22;3367;48.714;8.994;2022-10-16T03:36:31;13.60;99.90
6662;DHT22;3367;48.714;8.994;2022-10-16T03:38:58;13.60;99.90
6662;DHT22;3367;48.714;8.994;2022-10-16T03:41:25;13.80;99.90
6662;DHT22;3367;48.714;8.994;2022-10-16T03:43:52;13.70;99.90
6662;DHT22;3367;48.714;8.994;2022-10-16T03:46:19;13.90;99.90
6662;DHT22;3367;48.714;8.994;2022-10-16T03:48:46;13.70;99.90
6662;DHT22;3367;48.714;8.994;2022-10-16T03:51:14;13.70;99.90
6662;DHT22;3367;48.714;8.994;2022-10-16T03:53:41;13.60;99.90
6662;DHT22;3367;48.714;8.994;2022-10-16T03:56:08;13.60;91.50
6662;DHT22;3367;48.714;8.994;2022-10-16T03:58:34;13.60;49.60
6662;DHT22;3367;48.714;8.994;2022-10-16T04:01:01;13.60;90.10
6662;DHT22;3367;48.714;8.994;2022-10-16T04:03:28;13.40;99.50
6662;DHT22;3367;48.714;8.994;2022-10-16T04:05:55;13.50;99.90
6662;DHT22;3367;48.714;8.994;2022-10-16T04:08:23;13.50;99.90
6662;DHT22;3367;48.714;8.994;2022-10-16T04:10:50;13.50;99.90
6662;DHT22;3367;48.714;8.994;2022-10-16T04:13:17;13.50;99.90
6662;DHT22;3367;48.714;8.994;2022-10-16T04:15:45;13.70;99.90
6662;DHT22;3367;48.714;8.994;2022-10-16T04:18:12;13.40;99.90
6662;DHT22;3367;48.714;8.994;2022-10-16T04:20:39;13.40;99.90
6662;DHT22;3367;48.714;8.994;2022-10-16T04:23:06;13.40;99.90
6662;DHT22;3367;48.714;8.994;2022-10-16T04:25:34;13.40;99.90
6662;DHT22;3367;48.714;8.994;2022-10-16T04:28:01;13.40;99.90
6662;DHT22;3367;48.714;8.994;2022-10-16T04:30:28;13.40;99.90
6662;DHT22;3367;48.714;8.994;2022-10-16T04:32:55;13.50;99.90
6662;DHT22;3367;48.714;8.994;2022-10-16T04:35:22;13.50;99.90
6662;DHT22;3367;48.714;8.994;2022-10-16T04:37:49;13.50;1.00
6662;DHT22;3367;48.714;8.994;2022-10-16T04:40:16;13.60;99.90
6662;DHT22;3367;48.714;8.994;2022-10-16T04:42:45;13.80;99.90
6662;DHT22;3367;48.714;8.994;2022-10-16T04:45:12;13.80;99.90
6662;DHT22;3367;48.714;8.994;2022-10-16T04:47:39;13.70;99.90
6662;DHT22;3367;48.714;8.994;2022-10-16T04:50:07;13.60;99.90
6662;DHT22;3367;48.714;8.994;2022-10-16T04:52:34;13.70;99.90
6662;DHT22;3367;48.714;8.994;2022-10-16T04:55:01;13.70;99.90
6662;DHT22;3367;48.714;8.994;2022-10-16T04:57:28;13.70;99.90
6662;DHT22;3367;48.714;8.994;2022-10-16T04:59:57;13.80;12.20
6662;DHT22;3367;48.714;8.994;2022-10-16T05:02:24;13.80;1.00
6662;DHT22;3367;48.714;8.994;2022-10-16T05:04:51;13.90;1.00
6662;DHT22;3367;48.714;8.994;2022-10-16T05:07:18;13.80;1.00
6662;DHT22;3367;48.714;8.994;2022-10-16T05:09:45;13.80;1.00
6662;DHT22;3367;48.714;8.994;2022-10-16T05:12:12;13.80;1.00
6662;DHT22;3367;48.714;8.994;2022-10-16T05:14:39;13.80;1.00
6662;DHT22;3367;48.714;8.994;2022-10-16T05:17:07;13.80;1.00
6662;DHT22;3367;48.714;8.994;2022-10-16T05:19:34;14.10;1.00
6662;DHT22;3367;48.714;8.994;2022-10-16T05:22:01;13.90;1.00
6662;DHT22;3367;48.714;8.994;2022-10-16T05:24:28;13.70;1.00
6662;DHT22;3367;48.714;8.994;2022-10-16T05:26:54;14.10;1.00
6662;DHT22;3367;48.714;8.994;2022-10-16T05:29:21;13.70;1.00
6662;DHT22;3367;48.714;8.994;2022-10-16T05:31:50;13.60;1.00
6662;DHT22;3367;48.714;8.994;2022-10-16T05:34:19;13.70;1.00
6662;DHT22;3367;48.714;8.994;2022-10-16T05:36:46;13.60;1.00
6662;DHT22;3367;48.714;8.994;2022-10-16T05:39:14;13.50;1.00
6662;DHT22;3367;48.714;8.994;2022-10-16T05:41:41;13.50;1.00
6662;DHT22;3367;48.714;8.994;2022-10-16T05:44:08;13.40;1.00
6662;DHT22;3367;48.714;8.994;2022-10-16T05:46:35;13.40;1.00
6662;DHT22;3367;48.714;8.994;2022-10-16T05:49:02;13.40;1.00
6662;DHT22;3367;48.714;8.994;2022-10-16T05:51:31;13.40;1.00
6662;DHT22;3367;48.714;8.994;2022-10-16T05:53:57;13.50;1.00
6662;DHT22;3367;48.714;8.994;2022-10-16T05:56:24;13.40;70.70
6662;DHT22;3367;48.714;8.994;2022-10-16T05:58:51;13.40;54.30
6662;DHT22;3367;48.714;8.994;2022-10-16T06:01:19;13.40;99.90
6662;DHT22;3367;48.714;8.994;2022-10-16T06:03:49;13.50;99.90
6662;DHT22;3367;48.714;8.994;2022-10-16T06:06:17;13.50;99.90
6662;DHT22;3367;48.714;8.994;2022-10-16T06:08:47;13.40;99.90
6662;DHT22;3367;48.714;8.994;2022-10-16T06:11:16;13.60;99.90
6662;DHT22;3367;48.714;8.994;2022-10-16T06:13:43;13.70;99.90
6662;DHT22;3367;48.714;8.994;2022-10-16T06:16:12;13.70;99.90
6662;DHT22;3367;48.714;8.994;2022-10-16T06:18:39;13.70;99.90
6662;DHT22;3367;48.714;8.994;2022-10-16T06:21:08;13.70;99.90
6662;DHT22;3367;48.714;8.994;2022-10-16T06:23:35;13.80;99.90
6662;DHT22;3367;48.714;8.994;2022-10-16T06:26:08;13.90;47.00
6662;DHT22;3367;48.714;8.994;2022-10-16T06:28:36;13.90;1.00
6662;DHT22;3367;48.714;8.994;2022-10-16T06:31:07;13.90;1.00
6662;DHT22;3367;48.714;8.994;2022-10-16T06:33:35;13.90;1.00
6662;DHT22;3367;48.714;8.994;2022-10-16T06:36:03;14.00;1.00
6662;DHT22;3367;48.714;8.994;2022-10-16T06:38:31;14.10;1.00
6662;DHT22;3367;48.714;8.994;2022-10-16T06:40:58;14.10;1.00
6662;DHT22;3367;48.714;8.994;2022-10-16T06:43:28;14.40;1.00
6662;DHT22;3367;48.714;8.994;2022-10-16T06:45:59;14.60;99.90
6662;DHT22;3367;48.714;8.994;2022-10-16T06:48:27;14.70;1.00
6662;DHT22;3367;48.714;8.994;2022-10-16T06:50:59;14.70;1.00
6662;DHT22;3367;48.714;8.994;2022-10-16T06:53:28;14.90;99.90
6662;DHT22;3367;48.714;8.994;2022-10-16T06:56:05;14.70;65.30
6662;DHT22;3367;48.714;8.994;2022-10-16T06:58:34;14.80;1.00
6662;DHT22;3367;48.714;8.994;2022-10-16T07:01:01;15.00;1.00
6662;DHT22;3367;48.714;8.994;2022-10-16T07:03:30;15.00;99.90
6662;DHT22;3367;48.714;8.994;2022-10-16T07:06:01;15.00;9.00
6662;DHT22;3367;48.714;8.994;2022-10-16T07:08:31;15.30;1.00
6662;DHT22;3367;48.714;8.994;2022-10-16T07:10:59;15.20;1.00
6662;DHT22;3367;48.714;8.994;2022-10-16T07:16:05;15.40;99.90
6662;DHT22;3367;48.714;8.994;2022-10-16T07:18:32;15.40;99.90
6662;DHT22;3367;48.714;8.994;2022-10-16T07:21:03;15.40;99.90
6662;DHT22;3367;48.714;8.994;2022-10-16T07:23:30;15.40;64.20
6662;DHT22;3367;48.714;8.994;2022-10-16T07:25:57;15.40;1.00
6662;DHT22;3367;48.714;8.994;2022-10-16T07:28:24;15.40;1.00
6662;DHT22;3367;48.714;8.994;2022-10-16T07:30:51;15.40;63.70
6662;DHT22;3367;48.714;8.994;2022-10-16T07:33:19;15.30;99.90
6662;DHT22;3367;48.714;8.994;2022-10-16T07:35:50;15.40;1.00
6662;DHT22;3367;48.714;8.994;2022-10-16T07:38:17;15.50;1.00
6662;DHT22;3367;48.714;8.994;2022-10-16T07:40:44;15.50;1.00
6662;DHT22;3367;48.714;8.994;2022-10-16T07:43:11;15.60;1.00
6662;DHT22;3367;48.714;8.994;2022-10-16T07:45:46;15.60;1.00
6662;DHT22;3367;48.714;8.994;2022-10-16T07:48:14;15.60;1.00
6662;DHT22;3367;48.714;8.994;2022-10-16T07:50:42;15.70;1.00
6662;DHT22;3367;48.714;8.994;2022-10-16T07:53:09;15.70;1.00
6662;DHT22;3367;48.714;8.994;2022-10-16T07:55:36;15.80;99.90
6662;DHT22;3367;48.714;8.994;2022-10-16T07:58:03;15.90;99.90
6662;DHT22;3367;48.714;8.994;2022-10-16T08:00:30;15.90;99.90
6662;DHT22;3367;48.714;8.994;2022-10-16T08:02:57;16.00;99.90
6662;DHT22;3367;48.714;8.994;2022-10-16T08:05:25;16.10;90.40
6662;DHT22;3367;48.714;8.994;2022-10-16T08:07:55;16.20;1.00
6662;DHT22;3367;48.714;8.994;2022-10-16T08:10:24;16.30;1.00
6662;DHT22;3367;48.714;8.994;2022-10-16T08:12:52;16.40;1.00
6662;DHT22;3367;48.714;8.994;2022-10-16T08:15:19;16.50;1.00
6662;DHT22;3367;48.714;8.994;2022-10-16T08:17:54;16.70;99.90
6662;DHT22;3367;48.714;8.994;2022-10-16T08:20:21;16.70;99.90
6662;DHT22;3367;48.714;8.994;2022-10-16T08:22:48;16.90;24.50
6662;DHT22;3367;48.714;8.994;2022-10-16T08:25:16;16.90;41.70
6662;DHT22;3367;48.714;8.994;2022-10-16T08:27:43;17.00;99.90
6662;DHT22;3367;48.714;8.994;2022-10-16T08:30:10;17.10;86.70
6662;DHT22;3367;48.714;8.994;2022-10-16T08:32:37;17.30;1.00
6662;DHT22;3367;48.714;8.994;2022-10-16T08:35:04;17.30;1.00
6662;DHT22;3367;48.714;8.994;2022-10-16T08:37:31;17.40;1.00
6662;DHT22;3367;48.714;8.994;2022-10-16T08:39:58;17.40;1.00
6662;DHT22;3367;48.714;8.994;2022-10-16T08:42:36;17.20;1.00
6662;DHT22;3367;48.714;8.994;2022-10-16T08:45:19;17.20;1.00
6662;DHT22;3367;48.714;8.994;2022-10-16T08:47:49;17.20;1.00
6662;DHT22;3367;48.714;8.994;2022-10-16T08:50:23;17.20;1.00
6662;DHT22;3367;48.714;8.994;2022-10-16T08:52:51;17.30;1.00
6662;DHT22;3367;48.714;8.994;2022-10-16T08:55:28;17.40;1.00
6662;DHT22;3367;48.714;8.994;2022-10-16T08:57:59;17.50;1.00
6662;DHT22;3367;48.714;8.994;2022-10-16T09:00:26;17.70;1.00
6662;DHT22;3367;48.714;8.994;2022-10-16T09:02:59;17.70;99.90
6662;DHT22;3367;48.714;8.994;2022-10-16T09:05:45;17.90;99.90
6662;DHT22;3367;48.714;8.994;2022-10-16T09:08:17;18.00;99.90
6662;DHT22;3367;48.714;8.994;2022-10-16T09:10:52;18.00;99.90
6662;DHT22;3367;48.714;8.994;2022-10-16T09:13:28;18.10;99.90
6662;DHT22;3367;48.714;8.994;2022-10-16T09:16:01;18.20;99.90
6662;DHT22;3367;48.714;8.994;2022-10-16T09:18:37;18.40;99.90
6662;DHT22;3367;48.714;8.994;2022-10-16T09:21:11;18.60;1.00
6662;DHT22;3367;48.714;8.994;2022-10-16T09:23:40;18.90;1.00
6662;DHT22;3367;48.714;8.994;2022-10-16T09:26:11;18.90;1.00
6662;DHT22;3367;48.714;8.994;2022-10-16T09:28:40;19.10;1.00
6662;DHT22;3367;48.714;8.994;2022-10-16T09:31:13;19.10;1.00
6662;DHT22;3367;48.714;8.994;2022-10-16T09:33:42;19.20;1.00
6662;DHT22;3367;48.714;8.994;2022-10-16T09:36:09;19.00;1.00
6662;DHT22;3367;48.714;8.994;2022-10-16T09:38:37;18.90;1.00
6662;DHT22;3367;48.714;8.994;2022-10-16T09:41:16;18.90;1.00
6662;DHT22;3367;48.714;8.994;2022-10-16T09:43:51;18.80;1.00
6662;DHT22;3367;48.714;8.994;2022-10-16T09:46:26;18.90;1.00
6662;DHT22;3367;48.714;8.994;2022-10-16T09:48:56;19.10;1.00
6662;DHT22;3367;48.714;8.994;2022-10-16T09:51:25;19.10;1.00
6662;DHT22;3367;48.714;8.994;2022-10-16T09:53:56;19.10;1.00
6662;DHT22;3367;48.714;8.994;2022-10-16T09:56:25;19.30;1.00
6662;DHT22;3367;48.714;8.994;2022-10-16T09:59:00;19.50;1.00
6662;DHT22;3367;48.714;8.994;2022-10-16T10:01:31;19.70;1.00
6662;DHT22;3367;48.714;8.994;2022-10-16T10:04:02;19.80;1.00
6662;DHT22;3367;48.714;8.994;2022-10-16T10:06:30;20.00;99.90
6662;DHT22;3367;48.714;8.994;2022-10-16T10:09:03;20.10;99.90
6662;DHT22;3367;48.714;8.994;2022-10-16T10:11:39;20.20;99.90
6662;DHT22;3367;48.714;8.994;2022-10-16T10:14:23;20.40;99.90
6662;DHT22;3367;48.714;8.994;2022-10-16T10:16:50;20.50;99.90
6662;DHT22;3367;48.714;8.994;2022-10-16T10:19:19;20.60;99.90
6662;DHT22;3367;48.714;8.994;2022-10-16T10:21:47;20.70;99.90
6662;DHT22;3367;48.714;8.994;2022-10-16T10:24:15;20.60;99.90
6662;DHT22;3367;48.714;8.994;2022-10-16T10:26:53;20.60;99.90
6662;DHT22;3367;48.714;8.994;2022-10-16T10:29:28;20.60;99.90
6662;DHT22;3367;48.714;8.994;2022-10-16T10:32:06;20.80;99.90
6662;DHT22;3367;48.714;8.994;2022-10-16T10:35:01;20.90;99.90
6662;DHT22;3367;48.714;8.994;2022-10-16T10:37:41;20.80;1.00
6662;DHT22;3367;48.714;8.994;2022-10-16T10:40:18;20.80;1.00
6662;DHT22;3367;48.714;8.994;2022-10-16T10:42:52;20.80;1.00
6662;DHT22;3367;48.714;8.994;2022-10-16T10:45:26;20.80;1.00
6662;DHT22;3367;48.714;8.994;2022-10-16T10:48:03;20.70;1.00
6662;DHT22;3367;48.714;8.994;2022-10-16T10:50:39;20.80;1.00
6662;DHT22;3367;48.714;8.994;2022-10-16T10:53:11;20.70;1.00
6662;DHT22;3367;48.714;8.994;2022-10-16T10:55:47;20.80;1.00
6662;DHT22;3367;48.714;8.994;2022-10-16T10:58:35;21.00;1.00
6662;DHT22;3367;48.714;8.994;2022-10-16T11:01:09;20.90;1.00
6662;DHT22;3367;48.714;8.994;2022-10-16T11:03:48;20.90;1.00
6662;DHT22;3367;48.714;8.994;2022-10-16T11:06:22;20.90;1.00
6662;DHT22;3367;48.714;8.994;2022-10-16T11:08:55;20.90;1.00
6662;DHT22;3367;48.714;8.994;2022-10-16T11:11:27;21.00;1.00
6662;DHT22;3367;48.714;8.994;2022-10-16T11:14:00;20.90;1.00
6662;DHT22;3367;48.714;8.994;2022-10-16T11:16:32;20.80;1.00
6662;DHT22;3367;48.714;8.994;2022-10-16T11:19:08;20.90;1.00
6662;DHT22;3367;48.714;8.994;2022-10-16T11:21:42;21.00;1.00
6662;DHT22;3367;48.714;8.994;2022-10-16T11:24:16;21.10;1.00
6662;DHT22;3367;48.714;8.994;2022-10-16T11:26:46;21.10;1.00
6662;DHT22;3367;48.714;8.994;2022-10-16T11:29:19;21.10;1.00
6662;DHT22;3367;48.714;8.994;2022-10-16T11:31:52;21.20;1.00
6662;DHT22;3367;48.714;8.994;2022-10-16T11:34:25;21.20;1.00
6662;DHT22;3367;48.714;8.994;2022-10-16T11:36:57;21.30;1.00
6662;DHT22;3367;48.714;8.994;2022-10-16T11:39:27;21.60;1.00
6662;DHT22;3367;48.714;8.994;2022-10-16T11:41:59;21.80;1.00
6662;DHT22;3367;48.714;8.994;2022-10-16T11:44:36;21.90;1.00
6662;DHT22;3367;48.714;8.994;2022-10-16T11:47:18;22.00;1.00
6662;DHT22;3367;48.714;8.994;2022-10-16T11:49:47;22.00;1.00
6662;DHT22;3367;48.714;8.994;2022-10-16T11:52:20;22.10;1.00
6662;DHT22;3367;48.714;8.994;2022-10-16T11:54:52;22.40;1.00
6662;DHT22;3367;48.714;8.994;2022-10-16T11:57:23;22.70;1.00
6662;DHT22;3367;48.714;8.994;2022-10-16T11:59:54;22.80;1.00
6662;DHT22;3367;48.714;8.994;2022-10-16T12:02:50;22.90;1.00
6662;DHT22;3367;48.714;8.994;2022-10-16T12:05:24;23.00;1.00
6662;DHT22;3367;48.714;8.994;2022-10-16T12:07:59;22.90;1.00
6662;DHT22;3367;48.714;8.994;2022-10-16T12:10:30;22.70;1.00
6662;DHT22;3367;48.714;8.994;2022-10-16T12:13:03;22.80;1.00
6662;DHT22;3367;48.714;8.994;2022-10-16T12:15:31;22.80;1.00
6662;DHT22;3367;48.714;8.994;2022-10-16T12:18:00;22.70;1.00
6662;DHT22;3367;48.714;8.994;2022-10-16T12:20:29;22.80;1.00
6662;DHT22;3367;48.714;8.994;2022-10-16T12:23:00;22.70;1.00
6662;DHT22;3367;48.714;8.994;2022-10-16T12:25:29;22.80;1.00
6662;DHT22;3367;48.714;8.994;2022-10-16T12:27:59;23.00;1.00
6662;DHT22;3367;48.714;8.994;2022-10-16T12:30:28;23.10;1.00
6662;DHT22;3367;48.714;8.994;2022-10-16T12:32:56;23.10;1.00
6662;DHT22;3367;48.714;8.994;2022-10-16T12:35:27;23.00;1.00
6662;DHT22;3367;48.714;8.994;2022-10-16T12:38:05;22.80;1.00
6662;DHT22;3367;48.714;8.994;2022-10-16T12:40:34;22.70;1.00
6662;DHT22;3367;48.714;8.994;2022-10-16T12:43:12;22.40;1.00
6662;DHT22;3367;48.714;8.994;2022-10-16T12:45:39;22.30;1.00
6662;DHT22;3367;48.714;8.994;2022-10-16T12:48:19;22.20;1.00
6662;DHT22;3367;48.714;8.994;2022-10-16T12:50:48;22.20;1.00
6662;DHT22;3367;48.714;8.994;2022-10-16T12:53:19;22.10;1.00
6662;DHT22;3367;48.714;8.994;2022-10-16T12:55:53;22.10;1.00
6662;DHT22;3367;48.714;8.994;2022-10-16T12:58:33;22.00;1.00
6662;DHT22;3367;48.714;8.994;2022-10-16T13:01:08;21.90;1.00
6662;DHT22;3367;48.714;8.994;2022-10-16T13:04:00;21.90;1.00
6662;DHT22;3367;48.714;8.994;2022-10-16T13:06:39;21.90;1.00
6662;DHT22;3367;48.714;8.994;2022-10-16T13:09:33;21.80;1.00
6662;DHT22;3367;48.714;8.994;2022-10-16T13:12:16;21.90;1.00
6662;DHT22;3367;48.714;8.994;2022-10-16T13:17:43;21.90;1.00
6662;DHT22;3367;48.714;8.994;2022-10-16T13:20:18;22.00;1.00
6662;DHT22;3367;48.714;8.994;2022-10-16T13:22:55;22.00;1.00
6662;DHT22;3367;48.714;8.994;2022-10-16T13:25:32;22.00;1.00
6662;DHT22;3367;48.714;8.994;2022-10-16T13:28:01;22.10;1.00
6662;DHT22;3367;48.714;8.994;2022-10-16T13:30:30;22.10;1.00
6662;DHT22;3367;48.714;8.994;2022-10-16T13:33:01;22.20;1.00
6662;DHT22;3367;48.714;8.994;2022-10-16T13:35:30;22.20;1.00
6662;DHT22;3367;48.714;8.994;2022-10-16T13:38:13;22.30;1.00
6662;DHT22;3367;48.714;8.994;2022-10-16T13:40:54;22.50;1.00
6662;DHT22;3367;48.714;8.994;2022-10-16T13:43:24;22.50;1.00
6662;DHT22;3367;48.714;8.994;2022-10-16T13:45:56;22.50;1.00
6662;DHT22;3367;48.714;8.994;2022-10-16T13:48:23;22.50;1.00
6662;DHT22;3367;48.714;8.994;2022-10-16T13:51:05;22.40;1.00
6662;DHT22;3367;48.714;8.994;2022-10-16T13:53:35;22.30;1.00
6662;DHT22;3367;48.714;8.994;2022-10-16T13:56:03;22.10;1.00
6662;DHT22;3367;48.714;8.994;2022-10-16T13:58:30;22.10;1.00
6662;DHT22;3367;48.714;8.994;2022-10-16T14:00:59;22.00;1.00
6662;DHT22;3367;48.714;8.994;2022-10-16T14:03:27;22.00;1.00
6662;DHT22;3367;48.714;8.994;2022-10-16T14:05:56;22.00;1.00
6662;DHT22;3367;48.714;8.994;2022-10-16T14:08:25;22.00;1.00
6662;DHT22;3367;48.714;8.994;2022-10-16T14:10:55;22.00;1.00
6662;DHT22;3367;48.714;8.994;2022-10-16T14:13:30;22.10;1.00
6662;DHT22;3367;48.714;8.994;2022-10-16T14:16:00;22.00;1.00
6662;DHT22;3367;48.714;8.994;2022-10-16T14:18:29;22.00;1.00
6662;DHT22;3367;48.714;8.994;2022-10-16T14:21:03;22.00;1.00
6662;DHT22;3367;48.714;8.994;2022-10-16T14:23:31;21.90;1.00
6662;DHT22;3367;48.714;8.994;2022-10-16T14:26:20;21.90;1.00
6662;DHT22;3367;48.714;8.994;2022-10-16T14:28:48;22.00;1.00
6662;DHT22;3367;48.714;8.994;2022-10-16T14:31:28;22.00;1.00
6662;DHT22;3367;48.714;8.994;2022-10-16T14:33:55;22.00;1.00
6662;DHT22;3367;48.714;8.994;2022-10-16T14:36:22;22.10;1.00
6662;DHT22;3367;48.714;8.994;2022-10-16T14:38:57;22.10;1.00
6662;DHT22;3367;48.714;8.994;2022-10-16T14:41:25;22.00;1.00
6662;DHT22;3367;48.714;8.994;2022-10-16T14:43:54;21.90;1.00
6662;DHT22;3367;48.714;8.994;2022-10-16T14:46:23;21.90;1.00
6662;DHT22;3367;48.714;8.994;2022-10-16T14:49:00;21.80;1.00
6662;DHT22;3367;48.714;8.994;2022-10-16T14:51:27;21.90;1.00
6662;DHT22;3367;48.714;8.994;2022-10-16T14:53:54;22.00;1.00
6662;DHT22;3367;48.714;8.994;2022-10-16T14:56:22;22.00;1.00
6662;DHT22;3367;48.714;8.994;2022-10-16T14:58:51;22.00;1.00
6662;DHT22;3367;48.714;8.994;2022-10-16T15:01:19;21.90;1.00
6662;DHT22;3367;48.714;8.994;2022-10-16T15:03:46;21.90;1.00
6662;DHT22;3367;48.714;8.994;2022-10-16T15:06:14;21.90;1.00
6662;DHT22;3367;48.714;8.994;2022-10-16T15:08:42;21.70;1.00
6662;DHT22;3367;48.714;8.994;2022-10-16T15:11:11;21.60;1.00
6662;DHT22;3367;48.714;8.994;2022-10-16T15:13:38;21.60;1.00
6662;DHT22;3367;48.714;8.994;2022-10-16T15:16:10;21.50;1.00
6662;DHT22;3367;48.714;8.994;2022-10-16T15:18:37;21.50;1.00
6662;DHT22;3367;48.714;8.994;2022-10-16T15:21:04;21.50;1.00
6662;DHT22;3367;48.714;8.994;2022-10-16T15:23:31;21.50;1.00
6662;DHT22;3367;48.714;8.994;2022-10-16T15:25:58;21.30;1.00
6662;DHT22;3367;48.714;8.994;2022-10-16T15:28:25;21.30;1.00
6662;DHT22;3367;48.714;8.994;2022-10-16T15:30:54;21.30;1.00
6662;DHT22;3367;48.714;8.994;2022-10-16T15:33:23;21.20;1.00
6662;DHT22;3367;48.714;8.994;2022-10-16T15:35:53;21.10;1.00
6662;DHT22;3367;48.714;8.994;2022-10-16T15:38:21;21.00;1.00
6662;DHT22;3367;48.714;8.994;2022-10-16T15:40:48;21.00;1.00
6662;DHT22;3367;48.714;8.994;2022-10-16T15:43:16;20.90;1.00
6662;DHT22;3367;48.714;8.994;2022-10-16T15:45:43;20.80;1.00
6662;DHT22;3367;48.714;8.994;2022-10-16T15:48:11;20.70;1.00
6662;DHT22;3367;48.714;8.994;2022-10-16T15:50:40;20.70;1.00
6662;DHT22;3367;48.714;8.994;2022-10-16T15:53:08;20.60;1.00
6662;DHT22;3367;48.714;8.994;2022-10-16T15:55:34;20.60;1.00
6662;DHT22;3367;48.714;8.994;2022-10-16T15:58:03;20.50;1.00
6662;DHT22;3367;48.714;8.994;2022-10-16T16:00:30;20.40;1.00
6662;DHT22;3367;48.714;8.994;2022-10-16T16:02:57;20.30;1.00
6662;DHT22;3367;48.714;8.994;2022-10-16T16:05:24;20.20;1.00
6662;DHT22;3367;48.714;8.994;2022-10-16T16:07:52;20.10;1.00
6662;DHT22;3367;48.714;8.994;2022-10-16T16:10:19;20.00;1.00
6662;DHT22;3367;48.714;8.994;2022-10-16T16:12:47;19.80;1.00
6662;DHT22;3367;48.714;8.994;2022-10-16T16:15:17;19.80;1.00
6662;DHT22;3367;48.714;8.994;2022-10-16T16:17:44;19.70;1.00
6662;DHT22;3367;48.714;8.994;2022-10-16T16:20:12;19.60;1.00
6662;DHT22;3367;48.714;8.994;2022-10-16T16:22:38;19.50;1.00
6662;DHT22;3367;48.714;8.994;2022-10-16T16:25:07;19.40;1.00
6662;DHT22;3367;48.714;8.994;2022-10-16T16:27:34;19.30;14.70
6662;DHT22;3367;48.714;8.994;2022-10-16T16:30:04;19.20;46.50
6662;DHT22;3367;48.714;8.994;2022-10-16T16:32:32;19.20;95.90
6662;DHT22;3367;48.714;8.994;2022-10-16T16:34:59;19.00;99.90
6662;DHT22;3367;48.714;8.994;2022-10-16T16:37:26;19.00;99.90
6662;DHT22;3367;48.714;8.994;2022-10-16T16:39:52;18.80;99.90
6662;DHT22;3367;48.714;8.994;2022-10-16T16:42:22;18.70;99.90
6662;DHT22;3367;48.714;8.994;2022-10-16T16:44:49;18.60;99.90
6662;DHT22;3367;48.714;8.994;2022-10-16T16:47:16;18.60;99.90
6662;DHT22;3367;48.714;8.994;2022-10-16T16:49:43;18.50;1.00
6662;DHT22;3367;48.714;8.994;2022-10-16T16:52:09;18.30;1.00
6662;DHT22;3367;48.714;8.994;2022-10-16T16:54:36;18.30;1.00
6662;DHT22;3367;48.714;8.994;2022-10-16T16:57:03;18.20;1.00